Time;durP1;ratioP1;P1;durP2;ratioP2;P2;SDS_P1;SDS_P2;PMS_P1;PMS_P2;Temp;Humidity;BMP_temperature;BMP_pressure;BME280_temperature;BME280_humidity;BME280_pressure;Samples;Min_cycle;Max_cycle;Signal;HPM_P1;HPM_P2
2020/12/03 00:01:14;;;;;;;31.73;23.67;;;-0.70;75.00;;;;;;5150991;28;20077;-79
2020/12/03 00:03:49;;;;;;;31.45;23.08;;;-0.70;74.90;;;;;;5151832;28;20066;-78
2020/12/03 00:06:27;;;;;;;31.90;23.08;;;-0.70;74.90;;;;;;5151011;28;20045;-79
2020/12/03 00:09:03;;;;;;;31.13;22.80;;;-0.70;74.90;;;;;;5116826;28;20129;-78
2020/12/03 00:11:38;;;;;;;30.23;22.90;;;-0.70;75.00;;;;;;5150550;28;20635;-79
2020/12/03 00:14:10;;;;;;;32.10;22.75;;;-0.70;75.00;;;;;;5152228;28;20449;-78
2020/12/03 00:16:42;;;;;;;32.67;24.13;;;-0.70;75.00;;;;;;5138214;28;20126;-78
2020/12/03 00:19:15;;;;;;;30.63;23.33;;;-0.70;75.10;;;;;;5129949;28;20515;-80
2020/12/03 00:21:58;;;;;;;32.03;23.73;;;-0.70;75.10;;;;;;5149569;28;20057;-78
2020/12/03 00:24:32;;;;;;;27.83;21.95;;;-0.70;74.90;;;;;;5133928;28;20070;-75
2020/12/03 00:27:08;;;;;;;29.92;22.65;;;-0.70;75.10;;;;;;5132620;28;20050;-76
2020/12/03 00:29:40;;;;;;;30.38;22.05;;;-0.70;75.10;;;;;;5151784;28;20108;-76
2020/12/03 00:32:11;;;;;;;30.40;22.23;;;-0.80;75.20;;;;;;5151098;28;20425;-78
2020/12/03 00:34:42;;;;;;;31.88;22.63;;;-0.80;75.40;;;;;;5131817;28;20070;-78
2020/12/03 00:37:14;;;;;;;30.80;22.45;;;-0.80;75.30;;;;;;5150473;28;20104;-79
2020/12/03 00:39:45;;;;;;;28.85;22.92;;;-0.80;75.30;;;;;;5149231;28;20101;-78
2020/12/03 00:42:16;;;;;;;28.63;22.30;;;-0.80;75.50;;;;;;5150509;28;20157;-78
2020/12/03 00:44:48;;;;;;;30.23;22.75;;;-0.80;75.40;;;;;;5150647;28;20046;-78
2020/12/03 00:47:19;;;;;;;31.08;23.02;;;-0.80;75.30;;;;;;5152352;28;20085;-77
2020/12/03 00:49:51;;;;;;;27.85;21.33;;;-0.80;75.30;;;;;;5135468;28;20046;-77
2020/12/03 00:52:23;;;;;;;28.92;21.65;;;-0.70;75.00;;;;;;5133938;28;20046;-78
2020/12/03 00:54:55;;;;;;;29.65;22.17;;;-0.70;75.10;;;;;;5125560;28;20046;-78
2020/12/03 00:57:27;;;;;;;28.02;21.98;;;-0.70;75.10;;;;;;5119903;28;20049;-78
2020/12/03 00:59:59;;;;;;;28.83;21.48;;;-0.70;75.00;;;;;;5115360;28;20145;-78
2020/12/03 01:02:31;;;;;;;27.25;21.42;;;-0.70;75.10;;;;;;5150621;28;20054;-77
2020/12/03 01:05:05;;;;;;;27.95;22.10;;;-0.70;75.10;;;;;;5150975;28;20560;-78
2020/12/03 01:07:37;;;;;;;27.00;21.58;;;-0.60;75.00;;;;;;5137899;28;20053;-78
2020/12/03 01:10:15;;;;;;;26.52;20.90;;;-0.60;74.80;;;;;;5132671;28;20441;-77
2020/12/03 01:12:48;;;;;;;25.67;20.90;;;-0.60;74.80;;;;;;5132307;28;20602;-78
2020/12/03 01:15:19;;;;;;;27.88;21.10;;;-0.60;74.70;;;;;;5148874;28;20074;-78
2020/12/03 01:17:51;;;;;;;27.48;21.48;;;-0.60;74.70;;;;;;5150259;28;20535;-77
2020/12/03 01:20:26;;;;;;;25.63;20.63;;;-0.50;74.70;;;;;;5119676;28;20556;-78
2020/12/03 01:22:58;;;;;;;27.58;22.00;;;-0.60;74.60;;;;;;5133739;28;20057;-78
2020/12/03 01:25:30;;;;;;;25.90;21.30;;;-0.60;74.50;;;;;;5129391;28;20151;-78
2020/12/03 01:28:02;;;;;;;26.08;21.08;;;-0.60;74.70;;;;;;5147384;28;20755;-79
2020/12/03 01:30:33;;;;;;;25.45;20.38;;;-0.60;74.80;;;;;;5139060;28;20061;-80
2020/12/03 01:33:05;;;;;;;25.58;20.80;;;-0.60;74.80;;;;;;5148687;28;20722;-79
2020/12/03 01:35:36;;;;;;;26.20;21.08;;;-0.60;74.70;;;;;;5148736;28;20050;-78
2020/12/03 01:38:07;;;;;;;25.13;20.83;;;-0.60;74.60;;;;;;5132515;28;20066;-78
2020/12/03 01:40:48;;;;;;;24.05;20.30;;;-0.50;74.70;;;;;;5127192;28;20158;-80
2020/12/03 01:43:19;;;;;;;27.00;21.50;;;-0.50;74.80;;;;;;5149368;28;20035;-78
2020/12/03 01:45:57;;;;;;;27.33;21.50;;;-0.50;74.60;;;;;;5145827;28;20101;-78
2020/12/03 01:48:46;;;;;;;26.15;21.55;;;-0.50;74.70;;;;;;5131030;28;20126;-78
2020/12/03 01:51:25;;;;;;;27.33;20.48;;;-0.50;75.00;;;;;;5148851;28;20140;-79
2020/12/03 01:54:00;;;;;;;26.23;21.33;;;-0.50;75.20;;;;;;5147675;28;20888;-78
2020/12/03 01:56:51;;;;;;;25.45;20.83;;;-0.50;75.00;;;;;;5120145;28;20769;-78
2020/12/03 01:59:26;;;;;;;25.63;20.67;;;-0.50;74.90;;;;;;5149699;28;20046;-78
2020/12/03 02:01:59;;;;;;;27.00;21.20;;;-0.50;75.00;;;;;;5147547;28;20043;-78
2020/12/03 02:04:30;;;;;;;24.20;20.60;;;-0.50;75.00;;;;;;5149905;28;20773;-76
2020/12/03 02:07:06;;;;;;;26.33;21.30;;;-0.50;74.80;;;;;;5146109;28;20140;-78
2020/12/03 02:09:37;;;;;;;29.77;23.23;;;-0.60;75.60;;;;;;5130883;28;21013;-78
2020/12/03 02:12:09;;;;;;;27.33;21.42;;;-0.80;76.00;;;;;;5146978;28;20105;-78
2020/12/03 02:14:40;;;;;;;24.90;21.30;;;-0.80;76.20;;;;;;5131018;28;20074;-78
2020/12/03 02:17:12;;;;;;;29.05;22.08;;;-0.70;76.00;;;;;;5148654;28;20052;-79
2020/12/03 02:19:43;;;;;;;27.65;21.33;;;-0.70;75.80;;;;;;5146814;28;20043;-78
2020/12/03 02:22:14;;;;;;;27.33;21.67;;;-0.70;75.50;;;;;;5152838;28;20603;-78
2020/12/03 02:24:46;;;;;;;28.92;21.92;;;-0.60;75.30;;;;;;5150138;28;20102;-79
2020/12/03 02:27:21;;;;;;;26.52;21.42;;;-0.60;75.00;;;;;;5152807;28;20042;-78
2020/12/03 02:29:52;;;;;;;24.25;21.05;;;-0.60;75.10;;;;;;5147478;28;20097;-78
2020/12/03 02:32:24;;;;;;;26.90;21.27;;;-0.60;75.10;;;;;;5147598;28;20039;-78
2020/12/03 02:34:55;;;;;;;25.83;21.52;;;-0.60;75.10;;;;;;5147959;28;20054;-75
2020/12/03 02:37:28;;;;;;;26.58;21.48;;;-0.60;75.30;;;;;;5132004;28;20058;-76
2020/12/03 02:40:01;;;;;;;28.98;22.20;;;-0.60;75.30;;;;;;5134931;28;20627;-77
2020/12/03 02:42:33;;;;;;;28.77;22.15;;;-0.60;75.30;;;;;;5133418;28;20515;-76
2020/12/03 02:45:05;;;;;;;28.13;22.30;;;-0.50;75.30;;;;;;5117920;28;20042;-77
2020/12/03 02:47:37;;;;;;;31.48;23.95;;;-0.60;74.90;;;;;;5138355;28;20112;-76
2020/12/03 02:50:10;;;;;;;28.70;22.05;;;-0.50;74.90;;;;;;5123481;28;20043;-76
2020/12/03 02:52:42;;;;;;;29.50;22.55;;;-0.60;75.10;;;;;;5154790;28;20113;-79
2020/12/03 02:55:13;;;;;;;27.20;22.10;;;-0.60;75.30;;;;;;5135167;28;20575;-78
2020/12/03 02:57:45;;;;;;;29.52;22.35;;;-0.70;75.30;;;;;;5153669;28;20042;-79
2020/12/03 03:00:16;;;;;;;30.75;23.35;;;-0.80;75.90;;;;;;5148426;28;20467;-79
2020/12/03 03:02:48;;;;;;;28.00;22.02;;;-0.80;75.80;;;;;;5121384;28;20050;-79
2020/12/03 03:05:20;;;;;;;27.65;21.67;;;-0.70;75.70;;;;;;5149134;28;20137;-78
2020/12/03 03:07:52;;;;;;;29.10;22.08;;;-0.70;75.50;;;;;;5123956;28;20034;-79
2020/12/03 03:10:23;;;;;;;30.13;23.02;;;-0.60;75.40;;;;;;5160005;28;20038;-79
2020/12/03 03:12:56;;;;;;;30.58;23.13;;;-0.60;75.40;;;;;;5154896;28;20530;-78
2020/12/03 03:15:27;;;;;;;30.63;22.23;;;-0.60;75.40;;;;;;5134037;28;20046;-79
2020/12/03 03:17:59;;;;;;;29.73;22.55;;;-0.50;75.50;;;;;;5154707;28;20065;-79
2020/12/03 03:20:30;;;;;;;28.33;23.27;;;-0.60;75.30;;;;;;5135650;28;20039;-79
2020/12/03 03:23:02;;;;;;;30.88;22.70;;;-0.70;75.80;;;;;;5158688;28;20167;-79
2020/12/03 03:25:33;;;;;;;27.05;21.52;;;-0.60;75.80;;;;;;5121765;28;20054;-79
2020/12/03 03:28:05;;;;;;;30.42;24.02;;;-0.70;75.70;;;;;;5154498;28;20046;-78
2020/12/03 03:30:36;;;;;;;30.23;22.75;;;-0.60;75.30;;;;;;5152547;28;20136;-76
2020/12/03 03:33:08;;;;;;;29.80;22.08;;;-0.70;75.60;;;;;;5121934;28;20082;-76
2020/12/03 03:35:39;;;;;;;30.10;21.95;;;-0.60;75.40;;;;;;5150978;28;20460;-76
2020/12/03 03:38:11;;;;;;;28.17;21.85;;;-0.60;75.40;;;;;;5151528;28;20086;-77
2020/12/03 03:40:42;;;;;;;28.30;21.83;;;-0.50;75.50;;;;;;5151490;28;20050;-77
2020/12/03 03:43:14;;;;;;;28.48;21.92;;;-0.50;75.40;;;;;;5147928;28;20559;-77
2020/12/03 03:45:45;;;;;;;27.90;21.50;;;-0.50;75.30;;;;;;5134158;28;20046;-75
2020/12/03 03:48:17;;;;;;;27.23;21.05;;;-0.50;75.20;;;;;;5153431;28;20051;-76
2020/12/03 03:50:49;;;;;;;29.48;22.15;;;-0.50;75.30;;;;;;5135240;28;20065;-77
2020/12/03 03:53:20;;;;;;;27.75;22.25;;;-0.60;75.90;;;;;;5154163;28;20065;-76
2020/12/03 03:55:52;;;;;;;24.60;20.85;;;-0.60;75.80;;;;;;5131881;28;20050;-77
2020/12/03 03:58:24;;;;;;;28.52;22.38;;;-0.50;75.80;;;;;;5137205;28;20045;-77
2020/12/03 04:00:56;;;;;;;28.98;22.65;;;-0.50;75.60;;;;;;5134512;28;20070;-76
2020/12/03 04:03:27;;;;;;;29.30;22.15;;;-0.50;75.40;;;;;;5135135;28;20137;-76
2020/12/03 04:05:58;;;;;;;34.30;23.45;;;-0.60;75.40;;;;;;5150793;28;20414;-78
2020/12/03 04:08:30;;;;;;;30.77;23.75;;;-0.60;75.50;;;;;;5144792;28;20043;-79
2020/12/03 04:11:02;;;;;;;28.88;22.52;;;-0.80;75.90;;;;;;5128849;28;20257;-79
2020/12/03 04:13:34;;;;;;;30.80;22.80;;;-0.90;76.30;;;;;;5148972;28;20050;-79
2020/12/03 04:16:05;;;;;;;31.15;24.20;;;-0.90;76.60;;;;;;5133155;28;20105;-79
2020/12/03 04:18:37;;;;;;;29.17;23.05;;;-0.90;76.70;;;;;;5155368;28;20844;-79
2020/12/03 04:21:09;;;;;;;28.30;22.45;;;-0.90;76.50;;;;;;5149470;28;20145;-79
2020/12/03 04:23:41;;;;;;;29.13;22.35;;;-0.80;76.40;;;;;;5151937;28;20973;-80
2020/12/03 04:26:13;;;;;;;28.10;22.67;;;-0.70;76.20;;;;;;5149581;28;20051;-78
2020/12/03 04:28:44;;;;;;;29.75;22.60;;;-0.70;75.90;;;;;;5151921;28;20061;-80
2020/12/03 04:31:16;;;;;;;28.58;22.75;;;-0.70;75.80;;;;;;5114064;28;20457;-80
2020/12/03 04:33:47;;;;;;;29.35;22.30;;;-0.70;75.80;;;;;;5152652;28;20065;-80
2020/12/03 04:36:19;;;;;;;30.50;22.60;;;-0.60;75.60;;;;;;5121776;28;20161;-80
2020/12/03 04:38:51;;;;;;;30.67;22.65;;;-0.60;75.40;;;;;;5151742;28;20468;-81
2020/12/03 04:41:22;;;;;;;29.88;23.15;;;-0.60;75.30;;;;;;5115078;28;20108;-80
2020/12/03 04:44:06;;;;;;;29.60;22.88;;;-0.50;75.40;;;;;;5135101;28;20046;-80
2020/12/03 04:47:23;;;;;;;30.02;22.48;;;-0.50;75.30;;;;;;5147502;28;20054;-80
2020/12/03 04:50:14;;;;;;;29.58;22.55;;;-0.50;75.30;;;;;;5133868;28;20059;-80
2020/12/03 04:53:10;;;;;;;31.67;22.52;;;-0.50;75.30;;;;;;5149817;28;20050;-80
2020/12/03 04:55:58;;;;;;;30.02;23.00;;;-0.60;75.20;;;;;;5136446;28;20038;-80
2020/12/03 04:59:23;;;;;;;28.73;22.27;;;-0.50;75.30;;;;;;5148729;28;20049;-80
2020/12/03 05:01:57;;;;;;;30.10;23.08;;;-0.60;75.10;;;;;;5104625;28;20682;-79
2020/12/03 05:05:01;;;;;;;28.85;21.98;;;-0.50;75.40;;;;;;5102684;28;20047;-79
2020/12/03 05:07:33;;;;;;;27.80;21.30;;;-0.60;75.10;;;;;;5122896;28;20483;-80
2020/12/03 05:10:19;;;;;;;26.27;21.80;;;-0.50;75.30;;;;;;5149085;28;20047;-80
2020/12/03 05:12:51;;;;;;;29.33;22.65;;;-0.50;75.40;;;;;;5147640;28;20039;-80
2020/12/03 05:15:30;;;;;;;25.70;20.30;;;-0.60;75.50;;;;;;5142624;28;20054;-80
2020/12/03 05:18:23;;;;;;;27.20;21.52;;;-0.60;75.70;;;;;;5149941;28;20566;-79
2020/12/03 05:20:57;;;;;;;26.63;21.20;;;-0.60;75.80;;;;;;5144453;28;20049;-79
2020/12/03 05:23:35;;;;;;;28.00;21.27;;;-0.60;75.80;;;;;;5144550;28;20061;-80
2020/12/03 05:26:21;;;;;;;26.60;20.23;;;-0.60;75.70;;;;;;5108892;28;20053;-79
2020/12/03 05:29:04;;;;;;;26.25;20.85;;;-0.60;75.80;;;;;;5147900;28;20042;-79
2020/12/03 05:31:45;;;;;;;26.00;20.20;;;-0.60;75.60;;;;;;5148219;28;20093;-79
2020/12/03 05:34:18;;;;;;;;;;;-0.50;75.70;;;;;;5151716;28;20046;-79
2020/12/03 05:36:55;;;;;;;28.58;21.52;;;-0.50;75.80;;;;;;5136876;28;19925;-79
2020/12/03 05:39:47;;;;;;;27.17;20.85;;;-0.50;75.70;;;;;;5155295;28;20104;-79
2020/12/03 05:42:36;;;;;;;26.75;21.60;;;-0.50;75.70;;;;;;5155006;28;20487;-79
2020/12/03 05:45:15;;;;;;;27.43;20.87;;;-0.60;75.70;;;;;;5114065;28;20042;-78
2020/12/03 05:47:50;;;;;;;25.95;20.52;;;-0.60;75.60;;;;;;5149620;28;20729;-78
2020/12/03 05:50:35;;;;;;;28.63;21.73;;;-0.60;75.80;;;;;;5136087;28;20042;-79
2020/12/03 05:53:17;;;;;;;26.95;21.02;;;-0.50;75.80;;;;;;5134317;28;20125;-79
2020/12/03 05:55:52;;;;;;;28.10;21.80;;;-0.50;75.60;;;;;;5130927;28;20419;-77
2020/12/03 05:58:31;;;;;;;28.52;21.98;;;-0.50;75.60;;;;;;5148183;28;20056;-78
2020/12/03 06:01:13;;;;;;;27.35;20.83;;;-0.50;75.70;;;;;;5147478;28;20563;-79
2020/12/03 06:04:15;;;;;;;29.65;23.10;;;-0.60;75.80;;;;;;5144961;28;20046;-78
2020/12/03 06:07:30;;;;;;;32.22;22.05;;;-0.60;75.80;;;;;;5128035;28;20190;-76
2020/12/03 06:10:27;;;;;;;28.38;20.77;;;-0.60;75.70;;;;;;5145688;28;20051;-74
2020/12/03 06:13:07;;;;;;;30.58;22.45;;;-0.50;75.80;;;;;;5145621;28;20101;-78
2020/12/03 06:15:44;;;;;;;26.27;19.85;;;-0.50;76.00;;;;;;5131142;28;20482;-78
2020/12/03 06:18:48;;;;;;;29.33;21.80;;;-0.50;75.80;;;;;;5141618;28;20047;-77
2020/12/03 06:21:31;;;;;;;24.55;18.25;;;-0.50;75.70;;;;;;5117447;28;20101;-79
2020/12/03 06:24:10;;;;;;;23.30;17.52;;;-0.50;75.80;;;;;;5152068;28;20132;-78
2020/12/03 06:26:51;;;;;;;24.63;19.42;;;-0.50;76.00;;;;;;5150094;28;20389;-78
2020/12/03 06:29:43;;;;;;;28.70;21.15;;;-0.60;75.70;;;;;;5140190;28;20508;-78
2020/12/03 06:32:36;;;;;;;24.27;19.45;;;-0.50;76.00;;;;;;5154081;28;20034;-78
2020/12/03 06:35:21;;;;;;;25.67;19.65;;;-0.50;75.80;;;;;;5135865;28;20077;-78
2020/12/03 06:38:02;;;;;;;26.77;20.02;;;-0.50;76.00;;;;;;5143957;28;20726;-78
2020/12/03 06:40:39;;;;;;;24.35;19.50;;;-0.50;75.80;;;;;;5138370;28;20428;-77
2020/12/03 06:43:35;;;;;;;24.40;19.58;;;-0.50;76.00;;;;;;5129130;28;20075;-78
2020/12/03 06:46:16;;;;;;;24.52;18.95;;;-0.60;75.80;;;;;;5152593;28;20053;-79
2020/12/03 06:49:18;;;;;;;21.95;18.35;;;-0.50;76.20;;;;;;5145505;28;20193;-79
2020/12/03 06:52:27;;;;;;;24.42;19.00;;;-0.60;75.90;;;;;;5144496;28;20644;-79
2020/12/03 06:55:27;;;;;;;23.15;19.02;;;-0.50;76.00;;;;;;5141339;28;20050;-79
2020/12/03 06:58:42;;;;;;;23.55;18.98;;;-0.50;76.00;;;;;;5144553;28;20077;-79
2020/12/03 07:01:44;;;;;;;22.40;17.73;;;-0.50;76.00;;;;;;5150133;28;20527;-79
2020/12/03 07:04:47;;;;;;;21.63;17.98;;;-0.50;75.80;;;;;;5143344;28;20524;-76
2020/12/03 07:07:34;;;;;;;26.42;19.85;;;-0.40;75.70;;;;;;5149691;28;20086;-78
2020/12/03 07:10:25;;;;;;;26.27;20.67;;;-0.40;75.70;;;;;;5147807;28;20043;-78
2020/12/03 07:13:43;;;;;;;25.92;20.60;;;-0.50;75.90;;;;;;5148029;28;20042;-78
2020/12/03 07:16:52;;;;;;;24.30;19.08;;;-0.50;75.70;;;;;;5149312;28;20043;-78
2020/12/03 07:19:58;;;;;;;21.73;18.33;;;-0.50;75.90;;;;;;5151843;28;20042;-78
2020/12/03 07:23:17;;;;;;;27.05;20.40;;;-0.50;76.00;;;;;;5138091;28;20051;-78
2020/12/03 07:25:49;;;;;;;24.52;19.17;;;-0.40;75.60;;;;;;5141393;28;20066;-78
2020/12/03 07:28:25;;;;;;;26.90;20.02;;;-0.40;75.70;;;;;;5150105;28;20089;-79
2020/12/03 07:31:01;;;;;;;27.17;20.63;;;-0.40;75.60;;;;;;5145968;28;21037;-78
2020/12/03 07:34:16;;;;;;;26.38;19.98;;;-0.50;76.20;;;;;;5150683;28;20516;-77
2020/12/03 07:36:55;;;;;;;26.33;20.33;;;-0.50;76.00;;;;;;5149895;28;20065;-77
2020/12/03 07:39:34;;;;;;;24.98;18.92;;;-0.40;75.60;;;;;;5151214;28;20100;-77
2020/12/03 07:42:15;;;;;;;24.48;18.52;;;-0.30;75.80;;;;;;5150402;28;20137;-77
2020/12/03 07:44:50;;;;;;;21.02;16.90;;;-0.30;75.60;;;;;;5131688;28;20105;-78
2020/12/03 07:47:36;;;;;;;23.60;19.17;;;-0.30;75.50;;;;;;5149711;28;20508;-78
2020/12/03 07:50:28;;;;;;;24.15;19.02;;;-0.30;75.50;;;;;;5142659;28;20114;-77
2020/12/03 07:53:23;;;;;;;26.02;20.30;;;-0.20;75.50;;;;;;5091979;28;20086;-78
2020/12/03 07:55:55;;;;;;;24.25;19.67;;;-0.20;75.40;;;;;;5148454;28;20528;-78
2020/12/03 07:58:42;;;;;;;25.02;19.73;;;-0.10;75.60;;;;;;5135467;28;20108;-78
2020/12/03 08:01:25;;;;;;;23.45;18.88;;;-0.10;75.40;;;;;;5152763;28;20038;-78
2020/12/03 08:04:18;;;;;;;24.17;19.08;;;0.00;75.00;;;;;;5144229;28;20054;-78
2020/12/03 08:07:07;;;;;;;24.27;18.38;;;0.00;75.10;;;;;;5148920;28;20129;-76
2020/12/03 08:09:40;;;;;;;22.27;18.45;;;0.10;74.90;;;;;;5143106;28;20096;-78
2020/12/03 08:12:24;;;;;;;22.90;18.30;;;0.10;75.00;;;;;;5154470;28;20041;-78
2020/12/03 08:14:58;;;;;;;23.15;18.33;;;0.20;74.60;;;;;;5142677;28;20043;-78
2020/12/03 08:17:29;;;;;;;24.50;19.75;;;0.20;74.60;;;;;;5148070;28;20104;-77
2020/12/03 08:20:04;;;;;;;22.45;18.83;;;0.30;74.50;;;;;;5152379;28;20615;-78
2020/12/03 08:22:41;;;;;;;20.38;17.30;;;0.40;74.60;;;;;;5148702;28;20050;-78
2020/12/03 08:25:23;;;;;;;19.83;17.70;;;0.40;74.40;;;;;;5151228;28;20047;-78
2020/12/03 08:28:00;;;;;;;22.83;16.88;;;0.50;74.70;;;;;;5151671;28;20042;-78
2020/12/03 08:33:22;;;;;;;22.50;18.63;;;0.60;74.10;;;;;;5151173;28;20118;-77
2020/12/03 08:36:04;;;;;;;20.85;18.02;;;0.60;74.10;;;;;;5149154;28;20051;-78
2020/12/03 08:38:39;;;;;;;20.95;17.85;;;0.70;73.70;;;;;;5151595;28;20101;-79
2020/12/03 08:41:15;;;;;;;22.13;18.65;;;0.70;73.30;;;;;;5149476;28;20039;-78
2020/12/03 08:43:52;;;;;;;20.33;17.20;;;0.70;73.70;;;;;;5149175;28;20026;-78
2020/12/03 08:46:26;;;;;;;21.35;18.38;;;0.80;73.60;;;;;;5147740;28;20062;-78
2020/12/03 08:48:58;;;;;;;20.77;16.90;;;0.80;73.60;;;;;;5149830;28;20073;-78
2020/12/03 08:51:29;;;;;;;23.67;18.80;;;0.90;73.20;;;;;;5117170;28;20045;-77
2020/12/03 08:54:01;;;;;;;22.67;18.48;;;0.90;73.20;;;;;;5137239;28;20047;-78
2020/12/03 08:56:39;;;;;;;23.20;19.52;;;1.00;72.80;;;;;;5148998;28;20562;-78
2020/12/03 08:59:21;;;;;;;20.60;17.20;;;1.00;73.10;;;;;;5151685;28;20046;-78
2020/12/03 09:02:00;;;;;;;25.52;18.45;;;1.10;73.50;;;;;;5149323;28;20105;-78
2020/12/03 09:04:37;;;;;;;24.83;18.20;;;1.20;72.50;;;;;;5144731;28;20077;-78
2020/12/03 09:07:13;;;;;;;23.13;18.92;;;1.20;71.90;;;;;;5145443;28;20348;-78
2020/12/03 09:09:46;;;;;;;21.60;18.02;;;1.30;70.40;;;;;;5133483;28;20070;-78
2020/12/03 09:12:25;;;;;;;21.80;17.45;;;1.30;71.60;;;;;;5150631;28;20058;-78
2020/12/03 09:15:03;;;;;;;21.73;18.55;;;1.30;71.50;;;;;;5148889;28;20038;-78
2020/12/03 09:17:39;;;;;;;23.80;19.58;;;1.40;71.30;;;;;;5135253;28;20507;-78
2020/12/03 09:20:13;;;;;;;23.92;19.33;;;1.40;71.60;;;;;;5149676;28;20049;-79
2020/12/03 09:22:45;;;;;;;22.13;19.23;;;1.40;70.50;;;;;;5148968;28;20070;-78
2020/12/03 09:25:16;;;;;;;20.48;17.80;;;1.50;71.30;;;;;;5150172;28;20552;-78
2020/12/03 09:27:49;;;;;;;20.13;16.90;;;1.50;71.40;;;;;;5151874;28;20053;-77
2020/12/03 09:30:25;;;;;;;21.02;17.70;;;1.60;69.90;;;;;;5146115;28;20673;-78
2020/12/03 09:33:04;;;;;;;20.50;18.15;;;1.50;70.80;;;;;;5148622;28;20038;-78
2020/12/03 09:35:36;;;;;;;23.58;18.75;;;1.60;70.40;;;;;;5131221;28;20057;-77
2020/12/03 09:38:09;;;;;;;21.65;18.20;;;1.60;70.10;;;;;;5135218;28;20034;-78
2020/12/03 09:40:47;;;;;;;22.95;18.13;;;1.60;69.90;;;;;;5143525;28;20636;-78
2020/12/03 09:43:21;;;;;;;19.77;17.10;;;1.60;70.50;;;;;;5147878;28;20038;-78
2020/12/03 09:45:56;;;;;;;21.08;18.48;;;1.60;69.40;;;;;;5129784;28;20054;-76
2020/12/03 09:48:31;;;;;;;22.63;18.00;;;1.60;69.10;;;;;;5117758;28;20061;-77
2020/12/03 09:51:03;;;;;;;22.05;18.45;;;1.50;68.90;;;;;;5128387;28;20118;-77
2020/12/03 09:53:36;;;;;;;21.67;17.98;;;1.40;68.90;;;;;;5128674;28;20047;-78
2020/12/03 09:56:07;;;;;;;22.40;18.10;;;1.40;70.60;;;;;;5129575;28;20069;-78
2020/12/03 09:58:39;;;;;;;19.33;16.95;;;1.40;70.20;;;;;;5146070;28;20125;-79
2020/12/03 10:01:12;;;;;;;21.75;18.52;;;1.50;68.60;;;;;;5114276;28;20065;-78
2020/12/03 10:04:21;;;;;;;20.25;18.13;;;1.60;69.40;;;;;;5145036;28;20082;-78
2020/12/03 10:07:09;;;;;;;18.58;16.40;;;1.70;69.80;;;;;;5145692;28;20042;-76
2020/12/03 10:09:59;;;;;;;21.05;17.88;;;1.70;67.90;;;;;;5129124;28;20097;-77
2020/12/03 10:13:07;;;;;;;22.83;19.23;;;1.60;69.00;;;;;;5148047;28;20140;-77
2020/12/03 10:15:56;;;;;;;21.88;18.35;;;1.60;69.70;;;;;;5146369;28;20716;-77
2020/12/03 10:18:49;;;;;;;24.15;19.42;;;1.80;69.30;;;;;;5132515;28;20101;-77
2020/12/03 10:21:25;;;;;;;20.40;18.02;;;1.90;69.00;;;;;;5133375;28;20046;-75
2020/12/03 10:24:06;;;;;;;22.95;18.70;;;2.00;68.00;;;;;;5115150;28;20038;-75
2020/12/03 10:26:50;;;;;;;18.73;16.38;;;2.10;68.30;;;;;;5130182;28;20053;-76
2020/12/03 10:29:25;;;;;;;19.85;16.85;;;2.20;68.70;;;;;;5131717;28;20038;-76
2020/12/03 10:32:07;;;;;;;17.88;15.98;;;2.30;69.00;;;;;;5146653;28;20074;-75
2020/12/03 10:34:47;;;;;;;18.23;16.23;;;2.30;68.50;;;;;;5132313;28;20074;-75
2020/12/03 10:37:19;;;;;;;;;;;2.40;67.10;;;;;;5146451;28;20058;-78
2020/12/03 10:40:03;;;;;;;17.55;15.73;;;2.20;67.30;;;;;;5135199;28;19926;-74
2020/12/03 10:42:38;;;;;;;17.33;15.52;;;2.20;67.00;;;;;;5124373;28;20046;-77
2020/12/03 10:45:17;;;;;;;17.40;15.57;;;2.10;67.50;;;;;;5150094;28;20073;-76
2020/12/03 10:48:04;;;;;;;18.05;15.95;;;2.10;66.90;;;;;;5133160;28;20042;-78
2020/12/03 10:51:04;;;;;;;17.88;15.98;;;2.00;66.60;;;;;;5148907;28;20050;-77
2020/12/03 10:53:38;;;;;;;18.83;16.10;;;1.90;68.50;;;;;;5117398;28;20070;-78
2020/12/03 10:56:14;;;;;;;18.95;16.95;;;2.00;67.70;;;;;;5130126;28;20282;-76
2020/12/03 10:59:12;;;;;;;18.05;16.17;;;2.20;67.70;;;;;;5149889;28;20416;-77
2020/12/03 11:01:44;;;;;;;18.35;16.45;;;2.30;66.60;;;;;;5132663;28;20050;-80
2020/12/03 11:04:17;;;;;;;17.20;15.38;;;2.20;66.80;;;;;;5125741;28;20067;-79
2020/12/03 11:06:48;;;;;;;18.27;16.38;;;2.40;66.90;;;;;;5144400;28;20585;-79
2020/12/03 11:09:22;;;;;;;18.48;16.52;;;2.50;65.50;;;;;;5141567;28;20094;-79
2020/12/03 11:11:53;;;;;;;17.17;15.40;;;2.50;67.90;;;;;;5152148;28;20043;-81
2020/12/03 11:14:31;;;;;;;18.35;16.55;;;2.70;66.20;;;;;;5134388;28;20092;-79
2020/12/03 11:17:16;;;;;;;17.05;14.57;;;2.70;65.70;;;;;;5118120;28;20050;-79
2020/12/03 11:20:08;;;;;;;15.80;14.20;;;2.80;64.30;;;;;;5146614;28;20041;-78
2020/12/03 11:22:40;;;;;;;16.75;15.05;;;2.80;64.50;;;;;;5152699;28;20583;-79
2020/12/03 11:25:13;;;;;;;15.75;14.07;;;2.80;64.20;;;;;;5137307;28;20038;-80
2020/12/03 11:27:44;;;;;;;16.48;14.80;;;2.90;63.10;;;;;;5151957;28;20053;-80
2020/12/03 11:30:20;;;;;;;18.17;16.38;;;2.90;63.10;;;;;;5144762;28;20046;-80
2020/12/03 11:32:53;;;;;;;18.10;16.30;;;3.00;64.10;;;;;;5150181;28;20054;-79
2020/12/03 11:35:31;;;;;;;17.77;15.77;;;3.10;63.80;;;;;;5137004;28;20058;-77
2020/12/03 11:38:04;;;;;;;18.17;16.38;;;3.10;63.10;;;;;;5159356;28;20100;-79
2020/12/03 11:48:45;;;;;;;16.98;15.27;;;3.20;63.40;;;;;;5133426;28;20109;-81
2020/12/03 11:51:31;;;;;;;16.10;14.50;;;3.30;62.80;;;;;;5103750;28;20053;-78
2020/12/03 11:54:08;;;;;;;15.70;14.10;;;3.30;61.80;;;;;;5131972;28;20590;-76
2020/12/03 11:56:39;;;;;;;15.38;13.77;;;3.30;62.00;;;;;;5134489;28;20061;-76
2020/12/03 11:59:15;;;;;;;15.77;14.20;;;3.30;61.30;;;;;;5153004;28;20077;-75
2020/12/03 12:02:03;;;;;;;15.07;13.57;;;3.20;61.10;;;;;;5153023;28;20681;-79
2020/12/03 12:10:29;;;;;;;15.43;13.93;;;3.20;61.00;;;;;;5118617;23;20089;-80
2020/12/03 12:13:00;;;;;;;15.18;13.68;;;3.20;61.20;;;;;;5096144;29;20098;-78
2020/12/03 12:15:31;;;;;;;15.93;14.32;;;3.20;60.60;;;;;;5079464;29;20126;-79
2020/12/03 12:18:03;;;;;;;15.85;14.30;;;3.10;60.80;;;;;;5097975;29;20225;-77
2020/12/03 12:20:36;;;;;;;15.75;13.85;;;3.10;62.00;;;;;;5093291;29;20107;-76
2020/12/03 12:23:08;;;;;;;16.33;14.73;;;3.00;61.50;;;;;;5102151;28;20040;-75
2020/12/03 12:25:39;;;;;;;16.73;15.07;;;3.00;62.10;;;;;;5093823;28;20047;-75
2020/12/03 12:28:11;;;;;;;16.60;14.98;;;3.00;62.00;;;;;;5095044;29;20044;-77
2020/12/03 12:30:42;;;;;;;16.98;15.27;;;3.00;62.10;;;;;;5092523;29;20052;-77
2020/12/03 12:33:14;;;;;;;17.38;15.48;;;3.00;61.90;;;;;;5095602;29;20723;-77
2020/12/03 12:35:49;;;;;;;17.88;15.98;;;2.90;62.00;;;;;;5094663;29;20052;-75
2020/12/03 12:38:20;;;;;;;17.17;15.48;;;2.90;62.00;;;;;;5095315;29;20343;-75
2020/12/03 12:40:52;;;;;;;17.23;15.48;;;2.90;61.90;;;;;;5093761;28;20051;-75
2020/12/03 12:43:23;;;;;;;28.80;18.02;;;2.90;61.80;;;;;;5093274;29;20052;-76
2020/12/03 12:45:54;;;;;;;17.98;16.15;;;2.90;62.10;;;;;;5095093;29;20867;-76
2020/12/03 12:48:26;;;;;;;17.75;15.93;;;3.00;62.10;;;;;;5094045;29;20073;-76
2020/12/03 12:50:57;;;;;;;18.27;16.30;;;2.90;61.60;;;;;;5094093;29;20048;-76
2020/12/03 12:53:33;;;;;;;17.00;15.27;;;2.90;62.40;;;;;;5095859;29;20062;-76
2020/12/03 12:56:05;;;;;;;18.38;16.58;;;3.00;63.50;;;;;;5093240;29;21405;-75
2020/12/03 12:58:37;;;;;;;18.27;16.38;;;3.00;62.30;;;;;;5093280;29;20051;-75
2020/12/03 13:01:10;;;;;;;18.00;16.20;;;3.00;62.60;;;;;;5095003;29;20047;-77
2020/12/03 13:03:42;;;;;;;18.33;16.52;;;3.00;62.50;;;;;;5092673;29;20417;-75
2020/12/03 13:06:13;;;;;;;18.90;16.90;;;2.90;62.30;;;;;;5095636;29;20043;-77
2020/12/03 13:08:46;;;;;;;18.20;16.40;;;3.00;62.50;;;;;;5091060;29;20131;-74
2020/12/03 13:11:17;;;;;;;17.50;15.63;;;2.90;62.70;;;;;;5092320;29;20052;-77
2020/12/03 13:13:49;;;;;;;18.52;16.10;;;2.80;62.40;;;;;;5095604;29;20063;-76
2020/12/03 13:16:20;;;;;;;19.02;17.02;;;2.80;62.70;;;;;;5093652;29;20044;-74
2020/12/03 13:18:52;;;;;;;18.88;16.80;;;2.80;62.60;;;;;;5093877;29;20576;-74
2020/12/03 13:21:24;;;;;;;17.95;16.15;;;2.80;63.20;;;;;;5078949;29;20044;-75
2020/12/03 13:23:55;;;;;;;17.75;15.95;;;2.80;63.20;;;;;;5093865;29;20506;-75
2020/12/03 13:26:28;;;;;;;17.02;15.32;;;2.80;63.10;;;;;;5078153;29;20047;-74
2020/12/03 13:28:59;;;;;;;18.20;16.33;;;2.80;62.70;;;;;;5094799;29;20052;-74
2020/12/03 13:31:31;;;;;;;17.98;16.17;;;2.80;63.00;;;;;;5079418;29;20044;-75
2020/12/03 13:34:03;;;;;;;18.15;16.35;;;2.90;63.10;;;;;;5094663;29;20515;-74
2020/12/03 13:36:37;;;;;;;18.13;16.25;;;2.80;62.70;;;;;;5093383;29;20413;-75
2020/12/03 13:39:08;;;;;;;18.38;16.35;;;2.90;63.20;;;;;;5108141;28;20110;-75
2020/12/03 13:41:40;;;;;;;17.42;15.63;;;2.90;63.40;;;;;;5077870;29;20043;-75